createdAt,value
2022-09-14T00:01:35.346Z,18.12
2022-09-14T00:04:05.484Z,17.90
2022-09-14T00:06:35.458Z,17.88
2022-09-14T00:09:03.613Z,18.01
2022-09-14T00:11:33.770Z,18.03
2022-09-14T00:14:03.173Z,17.99
2022-09-14T00:16:33.434Z,17.91
2022-09-14T00:19:05.661Z,17.73
2022-09-14T00:21:35.771Z,17.71
2022-09-14T00:24:04.488Z,17.87
2022-09-14T00:26:32.317Z,17.84
2022-09-14T00:29:04.366Z,17.66
2022-09-14T00:31:33.359Z,17.68
2022-09-14T00:34:02.669Z,17.69
2022-09-14T00:36:32.102Z,17.79
2022-09-14T00:39:01.728Z,17.72
2022-09-14T00:41:32.932Z,17.77
2022-09-14T00:44:03.598Z,17.63
2022-09-14T00:46:33.117Z,17.60
2022-09-14T00:49:03.765Z,17.50
2022-09-14T00:51:34.681Z,17.44
2022-09-14T00:54:06.834Z,17.38
2022-09-14T00:56:35.239Z,17.50
2022-09-14T00:59:07.930Z,17.36
2022-09-14T01:01:36.188Z,17.31
2022-09-14T01:04:04.066Z,17.46
2022-09-14T01:06:40.285Z,17.38
2022-09-14T01:09:20.863Z,17.40
2022-09-14T01:12:02.633Z,17.36
2022-09-14T01:14:36.395Z,17.45
2022-09-14T01:17:10.114Z,17.46
2022-09-14T01:19:57.473Z,17.34
2022-09-14T01:22:36.419Z,17.23
2022-09-14T01:25:16.635Z,17.14
2022-09-14T01:27:47.794Z,17.11
2022-09-14T01:30:21.574Z,17.19
2022-09-14T01:32:54.231Z,17.12
2022-09-14T01:35:30.633Z,17.11
2022-09-14T01:38:02.530Z,17.03
2022-09-14T01:40:34.923Z,17.02
2022-09-14T01:43:09.104Z,17.00
2022-09-14T01:45:38.505Z,16.91
2022-09-14T01:48:08.888Z,17.18
2022-09-14T01:50:41.244Z,17.11
2022-09-14T01:53:13.903Z,16.91
2022-09-14T01:55:46.094Z,17.11
2022-09-14T01:58:21.363Z,17.20
2022-09-14T02:00:51.701Z,17.16
2022-09-14T02:03:23.276Z,17.06
2022-09-14T02:05:57.996Z,17.05
2022-09-14T02:08:29.260Z,16.98
2022-09-14T02:10:57.936Z,17.03
2022-09-14T02:13:28.072Z,16.90
2022-09-14T02:15:56.022Z,16.90
2022-09-14T02:18:24.138Z,16.96
2022-09-14T02:20:55.321Z,16.91
2022-09-14T02:23:24.221Z,16.85
2022-09-14T02:25:52.188Z,16.94
2022-09-14T02:28:22.499Z,16.92
2022-09-14T02:31:04.636Z,16.89
2022-09-14T02:33:41.500Z,16.73
2022-09-14T02:36:17.609Z,16.93
2022-09-14T02:38:52.813Z,16.81
2022-09-14T02:41:27.819Z,16.86
2022-09-14T02:44:04.416Z,16.73
2022-09-14T02:46:38.738Z,16.71
2022-09-14T02:49:12.851Z,16.71
2022-09-14T02:51:47.456Z,16.71
2022-09-14T02:54:19.321Z,16.72
2022-09-14T02:56:48.135Z,16.71
2022-09-14T02:59:15.985Z,16.74
2022-09-14T03:01:45.377Z,16.62
2022-09-14T03:04:13.269Z,16.75
2022-09-14T03:06:41.122Z,16.80
2022-09-14T03:09:08.977Z,16.59
2022-09-14T03:11:36.855Z,16.46
2022-09-14T03:14:04.718Z,16.64
2022-09-14T03:16:32.732Z,16.52
2022-09-14T03:19:01.964Z,16.58
2022-09-14T03:21:29.822Z,16.57
2022-09-14T03:23:58.213Z,16.53
2022-09-14T03:26:29.014Z,16.65
2022-09-14T03:29:00.375Z,16.52
2022-09-14T03:31:28.355Z,16.60
2022-09-14T03:33:58.197Z,16.63
2022-09-14T03:36:29.895Z,16.46
2022-09-14T03:39:00.192Z,16.49
2022-09-14T03:41:28.044Z,16.40
2022-09-14T03:43:55.962Z,16.29
2022-09-14T03:46:26.490Z,16.40
2022-09-14T03:48:55.860Z,16.47
2022-09-14T03:51:24.376Z,16.38
2022-09-14T03:53:53.920Z,16.37
2022-09-14T03:56:23.392Z,16.29
2022-09-14T03:58:51.276Z,16.48
2022-09-14T04:01:20.829Z,16.33
2022-09-14T04:03:48.990Z,16.46
2022-09-14T04:06:17.506Z,16.28
2022-09-14T04:08:47.244Z,16.36
2022-09-14T04:11:18.299Z,16.33
2022-09-14T04:13:47.037Z,16.33
2022-09-14T04:16:15.995Z,16.21
2022-09-14T04:18:44.976Z,16.17
2022-09-14T04:21:15.923Z,16.25
2022-09-14T04:24:12.735Z,16.22
2022-09-14T04:26:34.083Z,16.29
2022-09-14T04:29:02.058Z,16.27
2022-09-14T04:31:29.999Z,16.28
2022-09-14T04:33:58.421Z,16.38
2022-09-14T04:36:30.846Z,16.44
2022-09-14T04:39:00.686Z,16.37
2022-09-14T04:41:29.615Z,16.27
2022-09-14T04:43:59.893Z,16.33
2022-09-14T04:46:29.750Z,16.35
2022-09-14T04:48:58.035Z,16.32
2022-09-14T04:51:28.413Z,16.46
2022-09-14T04:53:59.211Z,16.41
2022-09-14T04:56:28.942Z,16.49
2022-09-14T04:59:01.811Z,16.43
2022-09-14T05:01:32.543Z,16.49
2022-09-14T05:04:00.614Z,16.48
2022-09-14T05:06:31.179Z,16.51
2022-09-14T05:09:00.229Z,16.47
2022-09-14T05:11:30.833Z,16.63
2022-09-14T05:14:01.049Z,16.68
2022-09-14T05:16:30.845Z,16.54
2022-09-14T05:19:01.819Z,16.74
2022-09-14T05:21:31.229Z,16.85
2022-09-14T05:24:00.809Z,16.65
2022-09-14T05:26:30.284Z,16.74
2022-09-14T05:29:01.571Z,16.80
2022-09-14T05:31:31.270Z,16.93
2022-09-14T05:33:59.628Z,17.03
2022-09-14T05:36:27.730Z,16.94
2022-09-14T05:38:57.624Z,16.93
2022-09-14T05:41:25.561Z,16.81
2022-09-14T05:43:53.479Z,16.90
2022-09-14T05:46:23.007Z,17.07
2022-09-14T05:48:52.043Z,16.96
2022-09-14T05:51:21.964Z,16.89
2022-09-14T05:53:50.622Z,16.90
2022-09-14T05:56:19.908Z,17.00
2022-09-14T05:58:48.156Z,16.98
2022-09-14T06:01:18.787Z,16.98
2022-09-14T06:03:49.820Z,17.01
2022-09-14T06:06:19.712Z,17.00
2022-09-14T06:08:52.273Z,16.96
2022-09-14T06:11:22.815Z,17.05
2022-09-14T06:13:51.297Z,17.14
2022-09-14T06:16:21.218Z,17.20
2022-09-14T06:18:51.568Z,17.29
2022-09-14T06:21:21.128Z,17.38
2022-09-14T06:23:50.365Z,17.30
2022-09-14T06:26:18.285Z,17.37
2022-09-14T06:28:46.168Z,17.51
2022-09-14T06:31:15.826Z,17.45
2022-09-14T06:33:47.452Z,17.45
2022-09-14T06:36:19.687Z,17.38
2022-09-14T06:38:49.697Z,17.26
2022-09-14T06:41:20.363Z,17.36
2022-09-14T06:43:49.155Z,17.36
2022-09-14T06:46:19.508Z,17.39
2022-09-14T06:48:49.912Z,17.58
2022-09-14T06:51:21.557Z,17.81
2022-09-14T06:53:50.377Z,17.87
2022-09-14T06:56:19.208Z,17.74
2022-09-14T06:58:47.248Z,17.66
2022-09-14T07:01:17.197Z,17.73
2022-09-14T07:03:46.932Z,18.03
2022-09-14T07:06:16.688Z,17.98
2022-09-14T07:08:46.177Z,17.91
2022-09-14T07:11:17.125Z,17.85
2022-09-14T07:13:45.974Z,17.88
2022-09-14T07:16:14.335Z,18.04
2022-09-14T07:18:43.040Z,17.75
2022-09-14T07:21:14.493Z,17.81
2022-09-14T07:23:44.709Z,17.86
2022-09-14T07:26:15.919Z,17.97
2022-09-14T07:28:45.016Z,18.11
2022-09-14T07:31:18.694Z,18.33
2022-09-14T07:33:46.910Z,18.25
2022-09-14T07:36:15.911Z,18.24
2022-09-14T07:38:58.979Z,18.36
2022-09-14T07:41:30.031Z,18.11
2022-09-14T07:44:00.587Z,18.35
2022-09-14T07:46:29.903Z,18.39
2022-09-14T07:49:00.287Z,18.71
2022-09-14T07:51:29.219Z,18.74
2022-09-14T07:53:58.076Z,19.03
2022-09-14T07:56:26.010Z,18.96
2022-09-14T07:59:17.283Z,18.99
2022-09-14T08:01:47.373Z,18.82
2022-09-14T08:04:15.223Z,18.99
2022-09-14T08:06:43.048Z,19.11
2022-09-14T08:09:10.915Z,18.99
2022-09-14T08:11:39.408Z,19.08
2022-09-14T08:14:11.458Z,19.33
2022-09-14T08:16:40.776Z,19.16
2022-09-14T08:19:12.937Z,19.54
2022-09-14T08:21:45.568Z,19.44
2022-09-14T08:24:16.635Z,19.40
2022-09-14T08:26:44.632Z,19.40
2022-09-14T08:29:14.644Z,19.37
2022-09-14T08:31:45.450Z,19.22
2022-09-14T08:34:14.881Z,19.24
2022-09-14T08:36:43.899Z,19.59
2022-09-14T08:39:14.865Z,19.78
2022-09-14T08:41:49.860Z,19.92
2022-09-14T08:44:23.256Z,20.20
2022-09-14T08:46:55.113Z,20.16
2022-09-14T08:49:42.040Z,20.27
2022-09-14T08:52:14.925Z,20.34
2022-09-14T08:54:42.704Z,20.02
2022-09-14T08:57:17.746Z,20.16
2022-09-14T08:59:56.170Z,20.25
2022-09-14T09:02:52.039Z,20.21
2022-09-14T09:05:35.595Z,20.14
2022-09-14T09:08:07.857Z,19.87
2022-09-14T09:10:38.647Z,19.61
2022-09-14T09:13:08.747Z,19.79
2022-09-14T09:15:42.986Z,20.08
2022-09-14T09:18:17.097Z,20.12
2022-09-14T09:20:48.311Z,19.91
2022-09-14T09:23:18.204Z,20.13
2022-09-14T09:25:52.685Z,20.14
2022-09-14T09:28:22.660Z,20.09
2022-09-14T09:30:53.547Z,20.22
2022-09-14T09:33:28.959Z,20.36
2022-09-14T09:36:18.764Z,20.19
2022-09-14T09:38:46.633Z,20.07
2022-09-14T09:41:18.448Z,20.25
2022-09-14T09:44:01.061Z,20.40
2022-09-14T09:46:31.784Z,20.65
2022-09-14T09:49:03.217Z,20.60
2022-09-14T09:51:32.625Z,20.42
2022-09-14T09:54:08.155Z,20.48
2022-09-14T09:56:40.632Z,20.60
2022-09-14T09:59:24.625Z,20.60
2022-09-14T10:01:56.379Z,20.69
2022-09-14T10:04:27.976Z,20.84
2022-09-14T10:06:57.729Z,20.78
2022-09-14T10:09:28.216Z,20.83
2022-09-14T10:12:01.450Z,20.65
2022-09-14T10:14:32.036Z,20.78
2022-09-14T10:17:17.095Z,20.48
2022-09-14T10:19:48.959Z,20.47
2022-09-14T10:22:26.991Z,20.56
2022-09-14T10:24:58.078Z,21.09
2022-09-14T10:27:39.694Z,21.08
2022-09-14T10:30:13.804Z,21.39
2022-09-14T10:32:45.819Z,21.48
2022-09-14T10:35:15.476Z,21.69
2022-09-14T10:37:58.085Z,21.56
2022-09-14T10:40:33.476Z,21.83
2022-09-14T10:43:12.787Z,21.83
2022-09-14T10:45:43.505Z,21.91
2022-09-14T10:48:30.653Z,22.15
2022-09-14T10:51:08.035Z,21.66
2022-09-14T10:53:46.000Z,22.04
2022-09-14T10:56:20.177Z,22.82
2022-09-14T10:59:15.510Z,22.61
2022-09-14T11:02:07.064Z,22.55
2022-09-14T11:04:54.244Z,22.74
2022-09-14T11:07:30.423Z,22.95
2022-09-14T11:10:09.657Z,22.87
2022-09-14T11:12:46.867Z,22.74
2022-09-14T11:15:25.898Z,22.55
2022-09-14T11:18:10.213Z,22.25
2022-09-14T11:20:47.063Z,21.75
2022-09-14T11:23:27.594Z,22.08
2022-09-14T11:25:58.905Z,21.97
2022-09-14T11:28:30.020Z,22.09
2022-09-14T11:31:03.866Z,21.97
2022-09-14T11:33:38.221Z,21.63
2022-09-14T11:36:16.674Z,21.92
2022-09-14T11:38:51.942Z,21.90
2022-09-14T11:41:27.354Z,22.41
2022-09-14T11:44:00.080Z,22.58
2022-09-14T11:46:33.655Z,22.40
2022-09-14T11:49:19.777Z,22.41
2022-09-14T11:51:53.552Z,22.80
2022-09-14T11:54:23.270Z,22.58
2022-09-14T11:56:53.801Z,22.68
2022-09-14T11:59:55.433Z,22.74
2022-09-14T12:02:59.944Z,22.76
2022-09-14T12:05:37.685Z,22.70
2022-09-14T12:08:37.229Z,22.20
2022-09-14T12:11:33.971Z,21.83
2022-09-14T12:14:31.828Z,22.13
2022-09-14T12:17:35.657Z,22.09
2022-09-14T12:20:43.968Z,22.20
2022-09-14T12:23:22.642Z,22.21
2022-09-14T12:26:01.260Z,22.47
2022-09-14T12:28:38.369Z,22.00
2022-09-14T12:31:34.230Z,22.17
2022-09-14T12:34:27.582Z,21.94
2022-09-14T12:37:27.334Z,21.74
2022-09-14T12:40:39.349Z,21.83
2022-09-14T12:43:49.604Z,21.88
2022-09-14T12:46:47.529Z,21.97
2022-09-14T12:49:33.460Z,22.04
2022-09-14T12:52:20.215Z,21.85
2022-09-14T12:55:01.490Z,22.08
2022-09-14T12:57:40.692Z,21.98
2022-09-14T13:00:15.640Z,21.89
2022-09-14T13:03:16.134Z,22.22
2022-09-14T13:05:45.362Z,22.48
2022-09-14T13:08:14.378Z,22.41
2022-09-14T13:10:47.808Z,22.16
2022-09-14T13:13:20.390Z,22.28
2022-09-14T13:15:54.913Z,21.83
2022-09-14T13:18:41.034Z,21.88
2022-09-14T13:21:19.826Z,21.90
2022-09-14T13:23:48.151Z,22.16
2022-09-14T13:26:20.560Z,21.83
2022-09-14T13:28:52.174Z,21.63
2022-09-14T13:31:26.621Z,21.56
2022-09-14T13:33:56.223Z,21.72
2022-09-14T13:36:26.784Z,21.77
2022-09-14T13:38:56.220Z,21.84
2022-09-14T13:41:25.624Z,21.81
2022-09-14T13:43:56.753Z,22.04
2022-09-14T13:46:27.387Z,21.46
2022-09-14T13:48:56.065Z,21.50
2022-09-14T13:51:26.001Z,21.61
2022-09-14T13:53:55.621Z,21.52
2022-09-14T13:56:28.113Z,21.61
2022-09-14T13:59:21.771Z,21.41
2022-09-14T14:01:57.113Z,21.86
2022-09-14T14:04:30.191Z,21.75
2022-09-14T14:07:16.628Z,21.55
2022-09-14T14:09:50.668Z,21.83
2022-09-14T14:12:26.977Z,21.67
2022-09-14T14:14:58.328Z,21.57
2022-09-14T14:17:36.586Z,21.33
2022-09-14T14:20:31.176Z,21.50
2022-09-14T14:23:01.740Z,21.63
2022-09-14T14:25:32.963Z,21.50
2022-09-14T14:28:02.789Z,21.31
2022-09-14T14:30:34.739Z,21.23
2022-09-14T14:33:02.833Z,21.47
2022-09-14T14:35:32.452Z,21.23
2022-09-14T14:38:00.423Z,21.42
2022-09-14T14:40:28.703Z,21.19
2022-09-14T14:42:58.722Z,21.25
2022-09-14T14:45:28.230Z,21.36
2022-09-14T14:47:58.477Z,21.11
2022-09-14T14:50:29.832Z,21.02
2022-09-14T14:52:58.570Z,21.21
2022-09-14T14:55:27.459Z,21.11
2022-09-14T14:57:59.571Z,20.90
2022-09-14T15:00:28.165Z,20.82
2022-09-14T15:02:57.444Z,20.74
2022-09-14T15:05:25.460Z,20.89
2022-09-14T15:07:55.003Z,20.80
2022-09-14T15:10:25.304Z,20.85
2022-09-14T15:12:53.304Z,20.86
2022-09-14T15:15:24.294Z,20.79
2022-09-14T15:17:52.885Z,20.45
2022-09-14T15:20:23.052Z,20.57
2022-09-14T15:22:51.315Z,20.88
2022-09-14T15:25:21.578Z,20.80
2022-09-14T15:27:49.657Z,20.72
2022-09-14T15:30:17.774Z,20.69
2022-09-14T15:32:45.726Z,20.49
2022-09-14T15:35:15.349Z,20.67
2022-09-14T15:37:44.607Z,20.95
2022-09-14T15:40:13.180Z,20.51
2022-09-14T15:42:41.171Z,20.54
2022-09-14T15:45:09.956Z,20.53
2022-09-14T15:47:37.795Z,20.51
2022-09-14T15:50:06.564Z,20.49
2022-09-14T15:52:36.996Z,20.39
2022-09-14T15:55:08.230Z,20.29
2022-09-14T15:57:36.845Z,20.52
2022-09-14T16:00:06.476Z,20.51
2022-09-14T16:02:40.952Z,20.39
2022-09-14T16:05:09.520Z,20.42
2022-09-14T16:07:37.387Z,20.33
2022-09-14T16:10:08.001Z,20.39
2022-09-14T16:12:35.824Z,20.33
2022-09-14T16:15:03.661Z,20.41
2022-09-14T16:17:31.498Z,20.49
2022-09-14T16:19:59.324Z,20.63
2022-09-14T16:22:27.247Z,20.61
2022-09-14T16:24:55.095Z,20.43
2022-09-14T16:27:24.274Z,20.73
2022-09-14T16:29:52.249Z,20.44
2022-09-14T16:32:20.183Z,20.41
2022-09-14T16:34:48.030Z,20.20
2022-09-14T16:37:16.659Z,20.19
2022-09-14T16:39:44.525Z,20.18
2022-09-14T16:42:12.339Z,20.32
2022-09-14T16:44:41.526Z,20.23
2022-09-14T16:47:09.346Z,20.24
2022-09-14T16:49:39.346Z,20.27
2022-09-14T16:52:07.306Z,20.46
2022-09-14T16:54:35.239Z,20.39
2022-09-14T16:57:03.113Z,20.45
2022-09-14T16:59:30.977Z,20.44
2022-09-14T17:02:00.259Z,20.44
2022-09-14T17:04:28.192Z,20.35
2022-09-14T17:06:56.815Z,20.46
2022-09-14T17:09:27.199Z,20.46
2022-09-14T17:11:56.071Z,20.26
2022-09-14T17:14:27.017Z,20.30
2022-09-14T17:16:57.927Z,20.17
2022-09-14T17:19:27.650Z,20.24
2022-09-14T17:21:55.771Z,20.19
2022-09-14T17:24:24.153Z,20.26
2022-09-14T17:26:52.081Z,20.14
2022-09-14T17:29:20.188Z,20.20
2022-09-14T17:31:48.305Z,20.18
2022-09-14T17:34:17.738Z,20.22
2022-09-14T17:36:47.209Z,20.23
2022-09-14T17:39:15.530Z,20.11
2022-09-14T17:41:44.017Z,20.12
2022-09-14T17:44:13.698Z,20.17
2022-09-14T17:46:51.647Z,20.20
2022-09-14T17:49:21.394Z,20.24
2022-09-14T17:51:50.825Z,20.17
2022-09-14T17:54:19.318Z,20.16
2022-09-14T17:56:47.303Z,20.17
2022-09-14T17:59:16.864Z,20.14
2022-09-14T18:01:44.956Z,20.10
2022-09-14T18:04:15.131Z,20.13
2022-09-14T18:06:45.243Z,20.04
2022-09-14T18:09:18.216Z,20.06
2022-09-14T18:11:46.619Z,20.05
2022-09-14T18:14:15.735Z,20.10
2022-09-14T18:16:44.626Z,20.07
2022-09-14T18:19:13.202Z,20.05
2022-09-14T18:21:41.616Z,19.96
2022-09-14T18:24:11.769Z,19.93
2022-09-14T18:26:41.064Z,19.95
2022-09-14T18:29:08.897Z,19.94
2022-09-14T18:31:36.802Z,19.87
2022-09-14T18:34:04.690Z,19.94
2022-09-14T18:36:32.641Z,19.86
2022-09-14T18:39:00.965Z,19.91
2022-09-14T18:41:31.326Z,19.83
2022-09-14T18:44:01.539Z,19.93
2022-09-14T18:46:29.592Z,19.87
2022-09-14T18:48:59.151Z,19.86
2022-09-14T18:51:28.967Z,19.74
2022-09-14T18:53:58.127Z,19.78
2022-09-14T18:56:26.726Z,19.87
2022-09-14T18:58:54.639Z,19.72
2022-09-14T19:01:24.041Z,19.64
2022-09-14T19:03:53.774Z,19.76
2022-09-14T19:06:21.999Z,19.73
2022-09-14T19:08:50.732Z,19.72
2022-09-14T19:11:20.699Z,19.84
2022-09-14T19:13:51.061Z,19.74
2022-09-14T19:16:20.220Z,19.81
2022-09-14T19:18:50.329Z,19.88
2022-09-14T19:21:23.730Z,19.74
2022-09-14T19:24:00.238Z,19.78
2022-09-14T19:26:30.199Z,19.77
2022-09-14T19:29:00.111Z,19.61
2022-09-14T19:31:30.402Z,19.72
2022-09-14T19:34:00.465Z,19.66
2022-09-14T19:36:29.422Z,19.72
2022-09-14T19:39:01.767Z,19.76
2022-09-14T19:41:30.600Z,19.62
2022-09-14T19:43:58.729Z,19.69
2022-09-14T19:46:26.761Z,19.65
2022-09-14T19:48:55.307Z,19.62
2022-09-14T19:51:26.950Z,19.50
2022-09-14T19:53:56.366Z,19.54
2022-09-14T19:56:26.803Z,19.57
2022-09-14T19:58:57.115Z,19.63
2022-09-14T20:01:26.652Z,19.54
2022-09-14T20:03:55.694Z,19.48
2022-09-14T20:06:28.887Z,19.55
2022-09-14T20:08:59.256Z,19.59
2022-09-14T20:11:29.289Z,19.22
2022-09-14T20:13:58.660Z,19.30
2022-09-14T20:16:28.970Z,19.29
2022-09-14T20:18:58.334Z,19.21
2022-09-14T20:21:28.932Z,19.15
2022-09-14T20:24:15.240Z,19.29
2022-09-14T20:26:44.825Z,19.35
2022-09-14T20:29:12.852Z,19.33
2022-09-14T20:31:41.040Z,19.15
2022-09-14T20:34:08.991Z,19.27
2022-09-14T20:36:38.197Z,19.27
2022-09-14T20:39:06.524Z,19.33
2022-09-14T20:41:36.141Z,19.28
2022-09-14T20:44:04.496Z,19.22
2022-09-14T20:46:35.313Z,19.06
2022-09-14T20:49:04.669Z,19.15
2022-09-14T20:51:33.023Z,19.17
2022-09-14T20:54:02.335Z,19.02
2022-09-14T20:56:32.753Z,18.90
2022-09-14T20:59:03.517Z,18.99
2022-09-14T21:01:33.268Z,18.78
2022-09-14T21:04:04.498Z,18.80
2022-09-14T21:06:33.025Z,18.74
2022-09-14T21:09:02.382Z,18.82
2022-09-14T21:11:31.035Z,18.87
2022-09-14T21:13:58.955Z,18.85
2022-09-14T21:16:28.450Z,18.98
2022-09-14T21:18:58.074Z,19.01
2022-09-14T21:21:26.652Z,18.87
2022-09-14T21:23:55.847Z,18.73
2022-09-14T21:26:26.099Z,18.93
2022-09-14T21:28:57.200Z,18.75
2022-09-14T21:31:26.678Z,18.71
2022-09-14T21:33:57.362Z,18.74
2022-09-14T21:36:27.318Z,18.80
2022-09-14T21:38:56.829Z,18.92
2022-09-14T21:41:27.932Z,18.72
2022-09-14T21:43:56.474Z,18.74
2022-09-14T21:46:25.069Z,18.70
2022-09-14T21:48:54.011Z,18.70
2022-09-14T21:51:23.532Z,18.64
2022-09-14T21:53:53.654Z,18.68
2022-09-14T21:56:23.691Z,18.61
2022-09-14T21:58:54.567Z,18.54
2022-09-14T22:01:25.325Z,18.56
2022-09-14T22:03:54.544Z,18.56
2022-09-14T22:06:24.411Z,18.64
2022-09-14T22:08:52.844Z,18.52
2022-09-14T22:11:23.442Z,18.58
2022-09-14T22:13:55.402Z,18.56
2022-09-14T22:16:24.756Z,18.52
2022-09-14T22:18:54.288Z,18.53
2022-09-14T22:21:23.159Z,18.38
2022-09-14T22:23:52.401Z,18.40
2022-09-14T22:26:21.551Z,18.38
2022-09-14T22:28:51.449Z,18.29
2022-09-14T22:31:22.372Z,18.33
2022-09-14T22:33:51.372Z,18.32
2022-09-14T22:36:19.280Z,18.25
2022-09-14T22:38:47.342Z,18.16
2022-09-14T22:41:18.131Z,18.45
2022-09-14T22:43:47.461Z,18.34
2022-09-14T22:46:17.764Z,18.36
2022-09-14T22:48:47.816Z,18.36
2022-09-14T22:51:19.307Z,18.28
2022-09-14T22:53:47.293Z,18.31
2022-09-14T22:56:17.428Z,18.23
2022-09-14T22:58:46.312Z,18.17
2022-09-14T23:01:16.713Z,18.26
2022-09-14T23:03:44.981Z,18.32
2022-09-14T23:06:14.513Z,18.07
2022-09-14T23:08:42.967Z,18.17
2022-09-14T23:11:13.019Z,18.22
2022-09-14T23:13:42.097Z,17.97
2022-09-14T23:16:11.729Z,18.00
2022-09-14T23:18:39.882Z,18.02
2022-09-14T23:21:08.069Z,18.01
2022-09-14T23:23:39.121Z,18.02
2022-09-14T23:26:09.074Z,17.98
2022-09-14T23:28:37.770Z,18.07
2022-09-14T23:31:06.341Z,17.89
2022-09-14T23:33:34.519Z,17.98
2022-09-14T23:36:02.498Z,18.00
2022-09-14T23:38:30.333Z,17.99
2022-09-14T23:40:59.571Z,18.04
2022-09-14T23:43:27.427Z,17.86
2022-09-14T23:45:55.406Z,17.99
2022-09-14T23:48:23.298Z,17.79
2022-09-14T23:50:58.011Z,17.81
2022-09-14T23:53:26.806Z,17.86
2022-09-14T23:55:55.248Z,17.79
2022-09-14T23:58:25.263Z,17.85
